Time;durP1;ratioP1;P1;durP2;ratioP2;P2;SDS_P1;SDS_P2;PMS_P1;PMS_P2;Temp;Humidity;BMP_temperature;BMP_pressure;BME280_temperature;BME280_humidity;BME280_pressure;Samples;Min_cycle;Max_cycle;Signal;HPM_P1;HPM_P2
2021/11/23 00:00:00;;;;;;;;;;;17.80;69.10;;;;;;5073337;28;20447;-55
2021/11/23 00:02:27;;;;;;;;;;;17.80;69.10;;;;;;5073345;28;20418;-52
2021/11/23 00:04:54;;;;;;;;;;;17.90;69.20;;;;;;5075495;28;20019;-59
2021/11/23 00:07:21;;;;;;;;;;;17.80;69.10;;;;;;5077855;28;19931;-51
2021/11/23 00:09:48;;;;;;;;;;;17.80;69.10;;;;;;5078137;28;19924;-51
2021/11/23 00:12:15;;;;;;;;;;;17.90;69.20;;;;;;5077061;28;19924;-53
2021/11/23 00:14:43;;;;;;;;;;;17.90;69.10;;;;;;5077027;28;19967;-58
2021/11/23 00:17:10;;;;;;;;;;;17.80;69.00;;;;;;5076966;28;19931;-57
2021/11/23 00:19:37;;;;;;;;;;;17.80;69.10;;;;;;5077245;28;19970;-54
2021/11/23 00:22:04;;;;;;;;;;;17.90;69.20;;;;;;5077068;28;19928;-59
2021/11/23 00:24:32;;;;;;;;;;;17.90;69.20;;;;;;5078457;28;20302;-57
2021/11/23 00:26:59;;;;;;;;;;;17.90;69.10;;;;;;5077098;28;19925;-54
2021/11/23 00:29:26;;;;;;;;;;;17.80;69.00;;;;;;5076742;28;19924;-59
2021/11/23 00:31:53;;;;;;;;;;;17.80;69.00;;;;;;5076699;28;19977;-58
2021/11/23 00:34:20;;;;;;;;;;;17.80;69.10;;;;;;5059309;28;19924;-56
2021/11/23 00:36:47;;;;;;;;;;;17.80;69.10;;;;;;5076612;28;19928;-56
2021/11/23 00:39:14;;;;;;;;;;;17.80;69.10;;;;;;5078304;28;20281;-59
2021/11/23 00:41:47;;;;;;;;;;;17.80;69.00;;;;;;5076848;28;19924;-54
2021/11/23 00:44:18;;;;;;;;;;;17.90;69.10;;;;;;5076449;28;19931;-57
2021/11/23 00:46:45;;;;;;;;;;;17.80;69.00;;;;;;5076744;28;20295;-56
2021/11/23 00:49:18;;;;;;;;;;;17.80;69.00;;;;;;5076416;28;19924;-58
2021/11/23 00:51:45;;;;;;;;;;;17.90;69.10;;;;;;5076547;28;19932;-58
2021/11/23 00:54:13;;;;;;;;;;;17.80;69.00;;;;;;5077568;28;19928;-56
2021/11/23 00:56:40;;;;;;;;;;;17.80;69.00;;;;;;5076252;28;19928;-57
2021/11/23 00:59:07;;;;;;;;;;;17.80;69.00;;;;;;5076203;28;19955;-55
2021/11/23 01:01:34;;;;;;;;;;;17.80;69.00;;;;;;5076458;28;19924;-57
2021/11/23 01:04:01;;;;;;;;;;;17.80;69.00;;;;;;5076381;28;19964;-55
2021/11/23 01:06:28;;;;;;;;;;;17.80;69.00;;;;;;5076324;28;19932;-56
2021/11/23 01:08:55;;;;;;;;;;;17.80;69.00;;;;;;5077361;28;19925;-58
2021/11/23 01:11:22;;;;;;;;;;;17.80;69.00;;;;;;5077149;28;19925;-59
2021/11/23 01:13:49;;;;;;;;;;;17.80;69.00;;;;;;5076265;28;19956;-54
2021/11/23 01:16:16;;;;;;;;;;;17.80;69.00;;;;;;5074781;28;19936;-54
2021/11/23 01:18:44;;;;;;;;;;;17.80;69.00;;;;;;5076160;28;19932;-58
2021/11/23 01:21:13;;;;;;;;;;;17.80;69.00;;;;;;5058101;28;19954;-58
2021/11/23 01:23:41;;;;;;;;;;;17.80;69.00;;;;;;5077128;28;20337;-57
2021/11/23 01:26:08;;;;;;;;;;;17.80;69.00;;;;;;5075670;28;20345;-57
2021/11/23 01:28:36;;;;;;;;;;;17.80;69.00;;;;;;5075685;28;20371;-58
2021/11/23 01:31:03;;;;;;;;;;;17.80;69.00;;;;;;5075614;28;20387;-56
2021/11/23 01:33:30;;;;;;;;;;;17.80;69.00;;;;;;5075901;28;20329;-58
2021/11/23 01:35:57;;;;;;;;;;;17.80;69.00;;;;;;5057858;28;19932;-58
2021/11/23 01:38:24;;;;;;;;;;;17.80;69.00;;;;;;5076624;28;19974;-51
2021/11/23 01:40:51;;;;;;;;;;;17.80;69.00;;;;;;5057491;28;19978;-58
2021/11/23 01:43:18;;;;;;;;;;;17.80;69.00;;;;;;5075389;28;19928;-56
2021/11/23 01:45:45;;;;;;;;;;;17.80;69.00;;;;;;5075271;28;19924;-57
2021/11/23 01:48:12;;;;;;;;;;;17.80;69.00;;;;;;5075289;28;20380;-58
2021/11/23 01:50:39;;;;;;;;;;;17.80;69.00;;;;;;5075430;28;20283;-58
2021/11/23 01:53:07;;;;;;;;;;;17.80;69.00;;;;;;5075304;28;19928;-55
2021/11/23 01:55:35;;;;;;;;;;;17.80;69.00;;;;;;5076572;28;19924;-59
2021/11/23 01:58:03;;;;;;;;;;;17.80;69.00;;;;;;5074858;28;19924;-56
2021/11/23 02:00:30;;;;;;;;;;;17.80;69.00;;;;;;5075339;28;19983;-53
2021/11/23 02:02:57;;;;;;;;;;;17.80;69.00;;;;;;5074953;28;19947;-59
2021/11/23 02:05:25;;;;;;;;;;;17.80;69.00;;;;;;5057212;28;19939;-56
2021/11/23 02:07:52;;;;;;;;;;;17.80;69.00;;;;;;5075172;28;19932;-60
2021/11/23 02:10:19;;;;;;;;;;;17.80;69.00;;;;;;5075937;28;19924;-50
2021/11/23 02:12:47;;;;;;;;;;;17.80;69.00;;;;;;5075071;28;19924;-59
2021/11/23 02:15:14;;;;;;;;;;;17.80;68.90;;;;;;5074724;28;20413;-54
2021/11/23 02:17:44;;;;;;;;;;;17.80;69.00;;;;;;5074666;28;19928;-55
2021/11/23 02:20:12;;;;;;;;;;;17.80;68.90;;;;;;5074838;28;20397;-57
2021/11/23 02:22:39;;;;;;;;;;;17.80;68.90;;;;;;5074391;28;19924;-57
2021/11/23 02:25:07;;;;;;;;;;;17.80;69.00;;;;;;5075142;28;19925;-58
2021/11/23 02:27:35;;;;;;;;;;;17.80;68.90;;;;;;5074553;28;19970;-59
2021/11/23 02:30:02;;;;;;;;;;;17.80;68.90;;;;;;5074457;28;19928;-55
2021/11/23 02:32:37;;;;;;;;;;;17.80;68.90;;;;;;5074399;28;19950;-59
2021/11/23 02:35:04;;;;;;;;;;;17.80;68.90;;;;;;5074650;28;19925;-57
2021/11/23 02:37:31;;;;;;;;;;;17.80;69.00;;;;;;5074272;28;20426;-56
2021/11/23 02:39:58;;;;;;;;;;;17.80;68.90;;;;;;5074853;28;19928;-56
2021/11/23 02:42:25;;;;;;;;;;;17.80;68.90;;;;;;5075065;28;19924;-59
2021/11/23 02:44:52;;;;;;;;;;;17.80;68.90;;;;;;5074103;28;19943;-55
2021/11/23 02:47:19;;;;;;;;;;;17.80;69.60;;;;;;5056488;28;19931;-59
2021/11/23 02:49:46;;;;;;;;;;;17.80;68.90;;;;;;5074122;28;19931;-57
2021/11/23 02:52:14;;;;;;;;;;;17.80;68.90;;;;;;5074239;28;20295;-59
2021/11/23 02:54:52;;;;;;;;;;;17.80;68.90;;;;;;5074718;28;20050;-56
2021/11/23 02:57:29;;;;;;;;;;;17.80;68.90;;;;;;5073873;28;20372;-60
2021/11/23 02:59:56;;;;;;;;;;;17.80;68.90;;;;;;5074330;28;20346;-60
2021/11/23 03:02:25;;;;;;;;;;;17.80;68.90;;;;;;5073552;28;20147;-54
2021/11/23 03:04:53;;;;;;;;;;;17.80;68.90;;;;;;5073848;28;19925;-58
2021/11/23 03:07:21;;;;;;;;;;;17.80;68.90;;;;;;5074183;28;19931;-56
2021/11/23 03:09:48;;;;;;;;;;;17.80;68.90;;;;;;5074375;28;19928;-57
2021/11/23 03:12:20;;;;;;;;;;;17.80;68.90;;;;;;5074131;28;19928;-58
2021/11/23 03:14:47;;;;;;;;;;;17.80;68.90;;;;;;5073814;28;19924;-58
2021/11/23 03:17:16;;;;;;;;;;;17.80;68.90;;;;;;5074107;28;20349;-56
2021/11/23 03:19:44;;;;;;;;;;;17.80;68.90;;;;;;5074067;28;19932;-58
2021/11/23 03:22:11;;;;;;;;;;;17.80;68.90;;;;;;5073923;28;19986;-57
2021/11/23 03:24:38;;;;;;;;;;;17.80;68.90;;;;;;5073622;28;19932;-58
2021/11/23 03:27:09;;;;;;;;;;;17.80;68.90;;;;;;5073692;28;19924;-58
2021/11/23 03:29:37;;;;;;;;;;;17.80;68.90;;;;;;5074298;28;20338;-54
2021/11/23 03:32:07;;;;;;;;;;;17.80;68.90;;;;;;5073626;28;19959;-53
2021/11/23 03:34:39;;;;;;;;;;;17.80;68.90;;;;;;5073938;28;19924;-52
2021/11/23 03:37:07;;;;;;;;;;;17.80;69.00;;;;;;5073637;28;19925;-53
2021/11/23 03:39:35;;;;;;;;;;;17.80;68.90;;;;;;5075434;28;19924;-59
2021/11/23 03:42:03;;;;;;;;;;;17.80;68.90;;;;;;5077682;28;19978;-59
2021/11/23 03:44:31;;;;;;;;;;;17.80;68.90;;;;;;5077970;28;19924;-59
2021/11/23 03:46:58;;;;;;;;;;;17.80;68.90;;;;;;5077533;28;20360;-54
2021/11/23 03:49:25;;;;;;;;;;;17.80;68.90;;;;;;5077561;28;19932;-57
2021/11/23 03:51:53;;;;;;;;;;;17.80;68.90;;;;;;5077704;28;19924;-58
2021/11/23 03:54:21;;;;;;;;;;;17.80;68.90;;;;;;5077572;28;19931;-59
2021/11/23 03:56:48;;;;;;;;;;;17.80;68.90;;;;;;5076938;28;19981;-59
2021/11/23 03:59:15;;;;;;;;;;;17.80;68.90;;;;;;5077683;28;20292;-58
2021/11/23 04:01:42;;;;;;;;;;;17.80;68.90;;;;;;5077289;28;19936;-58
2021/11/23 04:04:10;;;;;;;;;;;17.80;68.80;;;;;;5077251;28;20391;-57
2021/11/23 04:06:37;;;;;;;;;;;17.80;68.80;;;;;;5077175;28;19932;-58
2021/11/23 04:09:04;;;;;;;;;;;17.80;68.80;;;;;;5077486;28;20291;-58
2021/11/23 04:11:32;;;;;;;;;;;17.80;68.80;;;;;;5077067;28;20260;-51
2021/11/23 04:13:59;;;;;;;;;;;17.80;68.80;;;;;;5077360;28;20330;-52
2021/11/23 04:16:26;;;;;;;;;;;17.80;68.80;;;;;;5077010;28;19925;-57
2021/11/23 04:18:53;;;;;;;;;;;17.80;68.80;;;;;;5077255;28;19928;-58
2021/11/23 04:21:20;;;;;;;;;;;17.80;68.80;;;;;;5076806;28;19924;-60
2021/11/23 04:23:47;;;;;;;;;;;17.80;68.80;;;;;;5076984;28;19931;-54
2021/11/23 04:26:14;;;;;;;;;;;17.80;68.90;;;;;;5076536;28;19924;-57
2021/11/23 04:28:41;;;;;;;;;;;17.80;68.80;;;;;;5076836;28;19924;-55
2021/11/23 04:31:08;;;;;;;;;;;17.80;68.80;;;;;;5077075;28;19925;-57
2021/11/23 04:33:35;;;;;;;;;;;17.80;68.80;;;;;;5077014;28;19924;-58
2021/11/23 04:36:04;;;;;;;;;;;17.80;68.80;;;;;;5076633;28;20376;-59
2021/11/23 04:38:31;;;;;;;;;;;17.80;68.80;;;;;;5077437;28;19985;-59
2021/11/23 04:40:58;;;;;;;;;;;17.80;68.80;;;;;;5075963;28;19970;-58
2021/11/23 04:43:25;;;;;;;;;;;17.80;68.80;;;;;;5076522;28;19931;-59
2021/11/23 04:45:52;;;;;;;;;;;17.80;68.80;;;;;;5076396;28;19925;-57
2021/11/23 04:48:19;;;;;;;;;;;17.80;68.80;;;;;;5076425;28;19972;-57
2021/11/23 04:50:46;;;;;;;;;;;17.80;68.80;;;;;;5076481;28;20019;-56
2021/11/23 04:53:13;;;;;;;;;;;17.80;68.80;;;;;;5076489;28;19936;-56
2021/11/23 04:55:40;;;;;;;;;;;17.80;68.80;;;;;;5075853;28;20309;-55
2021/11/23 04:58:07;;;;;;;;;;;17.80;68.80;;;;;;5076104;28;19924;-56
2021/11/23 05:00:34;;;;;;;;;;;17.80;68.80;;;;;;5076171;28;19924;-59
2021/11/23 05:03:01;;;;;;;;;;;17.80;68.80;;;;;;5076459;28;20364;-57
2021/11/23 05:05:28;;;;;;;;;;;17.80;68.80;;;;;;5058379;28;19974;-53
2021/11/23 05:07:55;;;;;;;;;;;17.80;68.80;;;;;;5076083;28;19924;-60
2021/11/23 05:10:22;;;;;;;;;;;17.80;68.80;;;;;;5076069;28;19925;-55
2021/11/23 05:12:49;;;;;;;;;;;17.80;68.80;;;;;;5075497;28;19924;-55
2021/11/23 05:15:16;;;;;;;;;;;17.80;68.80;;;;;;5076284;28;19928;-51
2021/11/23 05:17:43;;;;;;;;;;;17.80;68.80;;;;;;5075923;28;20353;-58
2021/11/23 05:20:11;;;;;;;;;;;17.80;68.70;;;;;;5076077;28;19947;-59
2021/11/23 05:22:39;;;;;;;;;;;17.80;68.70;;;;;;5076382;28;20375;-49
2021/11/23 05:25:06;;;;;;;;;;;17.80;68.70;;;;;;5075703;28;20387;-55
2021/11/23 05:27:33;;;;;;;;;;;17.80;68.70;;;;;;5074824;28;19928;-59
2021/11/23 05:30:02;;;;;;;;;;;17.80;68.70;;;;;;5075677;28;19924;-52
2021/11/23 05:32:30;;;;;;;;;;;17.80;68.70;;;;;;5076462;28;20356;-52
2021/11/23 05:34:57;;;;;;;;;;;17.80;68.70;;;;;;5075861;28;19925;-54
2021/11/23 05:37:24;;;;;;;;;;;17.80;68.70;;;;;;5075823;28;20357;-56
2021/11/23 05:39:51;;;;;;;;;;;17.80;68.70;;;;;;5057817;28;20396;-55
2021/11/23 05:42:18;;;;;;;;;;;17.80;68.70;;;;;;5074383;28;19924;-59
2021/11/23 05:44:45;;;;;;;;;;;17.80;68.70;;;;;;5075662;28;20280;-56
2021/11/23 05:47:11;;;;;;;;;;;17.70;68.60;;;;;;5075257;28;19929;-56
2021/11/23 05:49:38;;;;;;;;;;;17.80;68.70;;;;;;5075287;28;19928;-55
2021/11/23 05:52:06;;;;;;;;;;;17.80;68.70;;;;;;5075421;28;19924;-58
2021/11/23 05:54:33;;;;;;;;;;;17.80;68.70;;;;;;5075299;28;20030;-60
2021/11/23 05:57:01;;;;;;;;;;;17.80;68.70;;;;;;5073831;28;20303;-51
2021/11/23 05:59:28;;;;;;;;;;;17.80;68.70;;;;;;5075069;28;19972;-58
2021/11/23 06:01:58;;;;;;;;;;;17.80;68.70;;;;;;5074781;28;19931;-59
2021/11/23 06:04:25;;;;;;;;;;;17.80;68.70;;;;;;5074937;28;20371;-59
2021/11/23 06:06:52;;;;;;;;;;;17.80;68.70;;;;;;5074821;28;19978;-54
2021/11/23 06:09:19;;;;;;;;;;;17.80;68.70;;;;;;5074822;28;20372;-56
2021/11/23 06:11:46;;;;;;;;;;;17.80;68.70;;;;;;5073967;28;19924;-55
2021/11/23 06:14:13;;;;;;;;;;;17.80;68.70;;;;;;5075096;28;19924;-58
2021/11/23 06:16:45;;;;;;;;;;;17.80;68.70;;;;;;5075015;28;20283;-54
2021/11/23 06:19:12;;;;;;;;;;;17.70;68.60;;;;;;5074917;28;19928;-59
2021/11/23 06:21:40;;;;;;;;;;;17.80;68.70;;;;;;5074804;28;19924;-58
2021/11/23 06:24:08;;;;;;;;;;;17.80;68.70;;;;;;5074416;28;19932;-58
2021/11/23 06:26:35;;;;;;;;;;;17.80;68.70;;;;;;5073439;28;19928;-52
2021/11/23 06:29:03;;;;;;;;;;;17.80;68.70;;;;;;5074771;28;20337;-56
2021/11/23 06:31:30;;;;;;;;;;;17.80;68.70;;;;;;5074423;28;19924;-51
2021/11/23 06:33:58;;;;;;;;;;;17.80;68.60;;;;;;5074331;28;19924;-54
2021/11/23 06:36:25;;;;;;;;;;;17.80;68.60;;;;;;5057299;28;20372;-54
2021/11/23 06:38:52;;;;;;;;;;;17.80;68.60;;;;;;5074549;28;20321;-58
2021/11/23 06:41:19;;;;;;;;;;;17.80;68.60;;;;;;5074567;28;19924;-56
2021/11/23 06:43:46;;;;;;;;;;;17.80;68.60;;;;;;5073318;28;19993;-59
2021/11/23 06:46:13;;;;;;;;;;;17.80;68.60;;;;;;5074054;28;19924;-59
2021/11/23 06:48:41;;;;;;;;;;;17.80;68.60;;;;;;5074138;28;19932;-59
2021/11/23 06:51:08;;;;;;;;;;;17.80;68.60;;;;;;5074324;28;19924;-60
2021/11/23 06:53:35;;;;;;;;;;;17.80;68.60;;;;;;5073892;28;19925;-58
2021/11/23 06:56:02;;;;;;;;;;;17.80;68.60;;;;;;5074188;28;20279;-55
2021/11/23 06:58:29;;;;;;;;;;;17.80;68.50;;;;;;5073449;28;19924;-60
2021/11/23 07:00:56;;;;;;;;;;;17.80;68.50;;;;;;5074002;28;19924;-59
2021/11/23 07:03:23;;;;;;;;;;;17.80;68.50;;;;;;5074284;28;20044;-60
2021/11/23 07:05:50;;;;;;;;;;;17.80;68.50;;;;;;5074160;28;19928;-57
2021/11/23 07:08:25;;;;;;;;;;;17.80;68.40;;;;;;5073988;28;19968;-57
2021/11/23 07:10:52;;;;;;;;;;;17.80;68.40;;;;;;5073871;28;19931;-54
2021/11/23 07:13:19;;;;;;;;;;;17.80;68.40;;;;;;5083703;28;19928;-53
2021/11/23 07:15:47;;;;;;;;;;;17.80;68.40;;;;;;5094180;28;19989;-54
2021/11/23 07:18:14;;;;;;;;;;;17.80;68.40;;;;;;5093916;28;19954;-58
2021/11/23 07:20:41;;;;;;;;;;;17.80;68.30;;;;;;5075968;28;19959;-56
2021/11/23 07:23:08;;;;;;;;;;;17.80;68.30;;;;;;5093750;28;19931;-54
2021/11/23 07:25:35;;;;;;;;;;;17.80;68.20;;;;;;5094113;28;19928;-55
2021/11/23 07:28:04;;;;;;;;;;;17.80;68.20;;;;;;5091219;28;20433;-60
2021/11/23 07:30:31;;;;;;;;;;;17.80;68.20;;;;;;5094174;28;19978;-58
2021/11/23 07:33:04;;;;;;;;;;;17.80;68.20;;;;;;5094437;28;19978;-59
2021/11/23 07:35:31;;;;;;;;;;;17.80;68.10;;;;;;5093776;28;19931;-53
2021/11/23 07:37:59;;;;;;;;;;;17.80;68.10;;;;;;5094068;28;19947;-54
2021/11/23 07:40:26;;;;;;;;;;;17.80;68.10;;;;;;5093745;28;19932;-57
2021/11/23 07:42:53;;;;;;;;;;;17.80;68.00;;;;;;5091465;28;20299;-54
2021/11/23 07:45:38;;;;;;;;;;;17.80;68.00;;;;;;5094003;28;19928;-56
2021/11/23 07:48:06;;;;;;;;;;;17.80;68.00;;;;;;5093636;28;19932;-60
2021/11/23 07:50:33;;;;;;;;;;;17.80;68.00;;;;;;5075963;28;19924;-60
2021/11/23 07:53:00;;;;;;;;;;;17.80;67.90;;;;;;5093385;28;19928;-52
2021/11/23 07:55:27;;;;;;;;;;;17.90;68.00;;;;;;5093545;28;19924;-58
2021/11/23 07:57:54;;;;;;;;;;;17.90;67.90;;;;;;5090704;28;19928;-52
2021/11/23 08:00:25;;;;;;;;;;;17.90;67.90;;;;;;5093858;28;19928;-58
2021/11/23 08:02:53;;;;;;;;;;;17.90;67.90;;;;;;5093607;28;19928;-59
2021/11/23 08:05:21;;;;;;;;;;;17.90;67.90;;;;;;5093505;28;19927;-58
2021/11/23 08:07:48;;;;;;;;;;;17.90;67.80;;;;;;5093400;28;19973;-57
2021/11/23 08:10:15;;;;;;;;;;;17.90;67.80;;;;;;5093819;28;19928;-58
2021/11/23 08:12:42;;;;;;;;;;;17.90;67.70;;;;;;5073351;28;20294;-59
2021/11/23 08:15:09;;;;;;;;;;;17.90;68.50;;;;;;5093728;28;19924;-56
2021/11/23 08:17:36;;;;;;;;;;;17.90;67.70;;;;;;5094196;28;19924;-58
2021/11/23 08:20:05;;;;;;;;;;;17.90;67.70;;;;;;5093223;28;19924;-54
2021/11/23 08:22:32;;;;;;;;;;;18.00;67.80;;;;;;5093173;28;20379;-58
2021/11/23 08:24:59;;;;;;;;;;;17.90;67.60;;;;;;5094032;28;19971;-51
2021/11/23 08:27:26;;;;;;;;;;;17.90;67.60;;;;;;5097021;28;19924;-59
2021/11/23 08:29:53;;;;;;;;;;;18.00;67.70;;;;;;5094533;28;19931;-55
2021/11/23 08:32:21;;;;;;;;;;;18.00;68.40;;;;;;5096996;28;20414;-57
2021/11/23 08:34:48;;;;;;;;;;;18.00;67.60;;;;;;5097239;28;19924;-58
2021/11/23 08:37:15;;;;;;;;;;;18.00;67.50;;;;;;5097237;28;19928;-58
2021/11/23 08:39:42;;;;;;;;;;;18.00;67.50;;;;;;5096881;28;19928;-59
2021/11/23 08:42:12;;;;;;;;;;;18.00;67.50;;;;;;5096852;28;19931;-50
2021/11/23 08:44:39;;;;;;;;;;;18.00;67.50;;;;;;5094478;28;19977;-59
2021/11/23 08:47:07;;;;;;;;;;;18.00;67.40;;;;;;5078960;28;19931;-59
2021/11/23 08:49:34;;;;;;;;;;;18.00;67.40;;;;;;5078610;28;19928;-55
2021/11/23 08:52:01;;;;;;;;;;;18.00;67.30;;;;;;5096603;28;19982;-51
2021/11/23 08:54:29;;;;;;;;;;;18.00;67.30;;;;;;5096333;28;19974;-53
2021/11/23 08:57:04;;;;;;;;;;;18.00;67.30;;;;;;5096409;28;19928;-58
2021/11/23 08:59:33;;;;;;;;;;;18.00;67.20;;;;;;5094146;28;20037;-57
2021/11/23 09:02:01;;;;;;;;;;;18.00;67.20;;;;;;5096346;28;19924;-59
2021/11/23 09:04:29;;;;;;;;;;;18.00;67.10;;;;;;5096743;28;19978;-54
2021/11/23 09:07:00;;;;;;;;;;;18.10;67.20;;;;;;5078424;28;19959;-58
2021/11/23 09:09:28;;;;;;;;;;;18.00;67.10;;;;;;5096429;28;19924;-57
2021/11/23 09:11:57;;;;;;;;;;;18.10;67.20;;;;;;5096155;28;19928;-53
2021/11/23 09:14:27;;;;;;;;;;;18.00;67.10;;;;;;5093350;28;19927;-58
2021/11/23 09:16:54;;;;;;;;;;;18.00;67.00;;;;;;5096366;28;19928;-56
2021/11/23 09:19:21;;;;;;;;;;;18.10;67.10;;;;;;5096075;28;19974;-59
2021/11/23 09:21:48;;;;;;;;;;;18.10;67.80;;;;;;5095889;28;19973;-59
2021/11/23 09:24:15;;;;;;;;;;;18.10;67.00;;;;;;5096689;28;19931;-56
2021/11/23 09:26:44;;;;;;;;;;;18.10;67.10;;;;;;5096285;28;19924;-57
2021/11/23 09:29:13;;;;;;;;;;;18.10;67.00;;;;;;5075870;28;20367;-50
2021/11/23 09:31:42;;;;;;;;;;;18.10;67.00;;;;;;5096137;28;19993;-53
2021/11/23 09:34:11;;;;;;;;;;;18.10;67.00;;;;;;5096145;28;20399;-58
2021/11/23 09:36:39;;;;;;;;;;;18.10;66.90;;;;;;5095123;28;19989;-54
2021/11/23 09:39:06;;;;;;;;;;;18.10;66.90;;;;;;5095689;28;19931;-52
2021/11/23 09:41:34;;;;;;;;;;;18.10;66.90;;;;;;5095640;28;19932;-54
2021/11/23 09:44:03;;;;;;;;;;;18.20;67.60;;;;;;5093051;28;19924;-58
2021/11/23 09:46:34;;;;;;;;;;;18.20;66.90;;;;;;5095679;28;20052;-59
2021/11/23 09:49:01;;;;;;;;;;;18.10;66.80;;;;;;5095553;28;20384;-56
2021/11/23 09:51:29;;;;;;;;;;;18.20;66.90;;;;;;5095595;28;19947;-60
2021/11/23 09:53:56;;;;;;;;;;;18.20;66.90;;;;;;5095264;28;19977;-53
2021/11/23 09:56:24;;;;;;;;;;;18.20;66.80;;;;;;5095158;28;19924;-60
2021/11/23 09:58:55;;;;;;;;;;;18.20;66.80;;;;;;5093060;28;19938;-55
2021/11/23 10:01:27;;;;;;;;;;;18.20;66.80;;;;;;5095363;28;19971;-55
2021/11/23 10:03:55;;;;;;;;;;;18.20;66.80;;;;;;5095624;28;19928;-58
2021/11/23 10:06:23;;;;;;;;;;;18.20;66.80;;;;;;5095367;28;19930;-60
2021/11/23 10:08:52;;;;;;;;;;;18.10;66.70;;;;;;5095104;28;19934;-53
2021/11/23 10:11:21;;;;;;;;;;;18.10;66.70;;;;;;5095365;28;19978;-57
2021/11/23 10:13:58;;;;;;;;;;;18.10;66.70;;;;;;5093438;28;19928;-59
2021/11/23 10:16:36;;;;;;;;;;;18.10;66.70;;;;;;5094908;28;19924;-55
2021/11/23 10:19:07;;;;;;;;;;;18.10;66.60;;;;;;5094929;28;20018;-54
2021/11/23 10:21:35;;;;;;;;;;;18.20;66.70;;;;;;5095025;28;19981;-59
2021/11/23 10:24:02;;;;;;;;;;;18.20;66.70;;;;;;5094958;28;20353;-52
2021/11/23 10:26:31;;;;;;;;;;;18.20;66.70;;;;;;5094686;28;20387;-54
2021/11/23 10:28:59;;;;;;;;;;;18.20;66.70;;;;;;5093137;28;19927;-59
2021/11/23 10:31:35;;;;;;;;;;;18.20;66.70;;;;;;5094471;28;19931;-60
2021/11/23 10:34:03;;;;;;;;;;;18.20;66.70;;;;;;5094954;28;19955;-57
2021/11/23 10:36:32;;;;;;;;;;;18.20;66.70;;;;;;5094916;28;19924;-58
2021/11/23 10:39:04;;;;;;;;;;;18.20;66.70;;;;;;5094845;28;19924;-53
2021/11/23 10:41:36;;;;;;;;;;;18.20;66.70;;;;;;5094507;28;19958;-52
2021/11/23 10:44:06;;;;;;;;;;;18.20;66.60;;;;;;5093791;28;19924;-53
2021/11/23 10:46:35;;;;;;;;;;;18.20;66.60;;;;;;5094028;28;19928;-51
2021/11/23 10:49:02;;;;;;;;;;;18.20;66.60;;;;;;5094501;28;19924;-58
2021/11/23 10:51:39;;;;;;;;;;;18.20;66.60;;;;;;5094224;28;19924;-58
2021/11/23 10:54:14;;;;;;;;;;;18.20;66.60;;;;;;5094432;28;19931;-53
2021/11/23 10:56:53;;;;;;;;;;;18.20;66.60;;;;;;5076381;28;19928;-59
2021/11/23 10:59:20;;;;;;;;;;;18.20;66.50;;;;;;5091792;28;20272;-59
2021/11/23 11:01:47;;;;;;;;;;;18.20;66.50;;;;;;5094129;28;20375;-56
2021/11/23 11:04:15;;;;;;;;;;;18.20;66.50;;;;;;5094045;28;19967;-56
2021/11/23 11:06:42;;;;;;;;;;;18.20;66.60;;;;;;5094014;28;19977;-59
2021/11/23 11:09:10;;;;;;;;;;;18.20;66.50;;;;;;5094377;28;20065;-58
2021/11/23 11:11:37;;;;;;;;;;;18.20;66.50;;;;;;5094057;28;20382;-58
2021/11/23 11:14:06;;;;;;;;;;;18.20;66.50;;;;;;5094255;28;19924;-54
2021/11/23 11:16:37;;;;;;;;;;;18.20;66.50;;;;;;5091284;28;20015;-57
2021/11/23 11:19:12;;;;;;;;;;;18.20;66.50;;;;;;5093907;28;19973;-54
2021/11/23 11:21:48;;;;;;;;;;;18.20;66.50;;;;;;5093752;28;20371;-59
2021/11/23 11:24:21;;;;;;;;;;;18.20;66.50;;;;;;5093571;28;19928;-54
2021/11/23 11:26:54;;;;;;;;;;;18.20;66.50;;;;;;5093712;28;19973;-59
2021/11/23 11:29:28;;;;;;;;;;;18.20;66.50;;;;;;5093856;28;20290;-53
2021/11/23 11:31:55;;;;;;;;;;;18.20;66.50;;;;;;5091219;28;19954;-55
2021/11/23 11:34:25;;;;;;;;;;;18.20;66.50;;;;;;5094060;28;20023;-59
2021/11/23 11:37:04;;;;;;;;;;;18.20;66.50;;;;;;5075817;28;19924;-57
2021/11/23 11:39:37;;;;;;;;;;;18.20;66.50;;;;;;5076184;28;20375;-57
2021/11/23 11:42:11;;;;;;;;;;;18.20;66.50;;;;;;5093678;28;20023;-50
2021/11/23 11:44:40;;;;;;;;;;;18.20;66.50;;;;;;5093964;28;19978;-55
2021/11/23 11:47:15;;;;;;;;;;;18.20;66.50;;;;;;5093363;28;20290;-60
2021/11/23 11:49:49;;;;;;;;;;;18.20;66.50;;;;;;5093566;28;20268;-59
2021/11/23 11:52:19;;;;;;;;;;;18.20;66.50;;;;;;5093836;28;19932;-58
2021/11/23 11:55:06;;;;;;;;;;;18.20;66.50;;;;;;5093706;28;19928;-58
2021/11/23 11:57:39;;;;;;;;;;;18.20;66.50;;;;;;5083017;28;19931;-54
2021/11/23 12:00:21;;;;;;;;;;;18.20;66.50;;;;;;5092279;28;19931;-57
2021/11/23 12:02:49;;;;;;;;;;;18.20;66.40;;;;;;5097515;28;19924;-58
2021/11/23 12:05:17;;;;;;;;;;;18.20;66.50;;;;;;5097496;28;19924;-56
2021/11/23 12:07:45;;;;;;;;;;;18.20;66.50;;;;;;5097300;28;19924;-59
2021/11/23 12:10:21;;;;;;;;;;;18.20;66.50;;;;;;5097716;28;19924;-53
2021/11/23 12:12:57;;;;;;;;;;;18.20;66.50;;;;;;5097622;28;19924;-58
2021/11/23 12:15:35;;;;;;;;;;;18.20;66.50;;;;;;5094561;28;20494;-55
2021/11/23 12:18:21;;;;;;;;;;;18.20;66.50;;;;;;5097343;28;19924;-57
2021/11/23 12:21:03;;;;;;;;;;;18.20;66.40;;;;;;5097069;28;19931;-59
2021/11/23 12:23:30;;;;;;;;;;;18.20;66.50;;;;;;5097252;28;19987;-59
2021/11/23 12:26:02;;;;;;;;;;;18.20;66.50;;;;;;5097043;28;19959;-58
2021/11/23 12:28:30;;;;;;;;;;;18.20;66.50;;;;;;5078899;28;19924;-55
2021/11/23 12:30:58;;;;;;;;;;;18.20;66.50;;;;;;5094226;28;19951;-58
2021/11/23 12:33:25;;;;;;;;;;;18.20;66.50;;;;;;5097259;28;19928;-58
2021/11/23 12:35:54;;;;;;;;;;;18.20;66.50;;;;;;5096820;28;19924;-56
2021/11/23 12:38:23;;;;;;;;;;;18.20;66.40;;;;;;5097226;28;19978;-59
2021/11/23 12:40:50;;;;;;;;;;;18.20;66.50;;;;;;5096896;28;19927;-58
2021/11/23 12:43:18;;;;;;;;;;;18.20;66.50;;;;;;5096855;28;19925;-59
2021/11/23 12:45:46;;;;;;;;;;;18.20;66.50;;;;;;5094984;28;19928;-51
2021/11/23 12:48:28;;;;;;;;;;;18.20;66.50;;;;;;5097137;28;20363;-58
2021/11/23 12:50:56;;;;;;;;;;;18.20;66.60;;;;;;5096912;28;19928;-58
2021/11/23 12:53:23;;;;;;;;;;;18.10;66.50;;;;;;5096608;28;19960;-51
2021/11/23 12:55:52;;;;;;;;;;;18.20;66.60;;;;;;5096601;28;19970;-59
2021/11/23 12:58:19;;;;;;;;;;;18.10;66.50;;;;;;5096297;28;19931;-59
2021/11/23 13:00:46;;;;;;;;;;;18.20;66.60;;;;;;5094921;28;20410;-59
2021/11/23 13:03:13;;;;;;;;;;;18.20;66.60;;;;;;5096686;28;19924;-52
2021/11/23 13:05:42;;;;;;;;;;;18.20;66.60;;;;;;5097251;28;20018;-56
2021/11/23 13:08:14;;;;;;;;;;;18.20;66.70;;;;;;5096261;28;20375;-56
2021/11/23 13:10:43;;;;;;;;;;;18.10;66.60;;;;;;5096107;28;20380;-56
2021/11/23 13:13:10;;;;;;;;;;;18.10;66.60;;;;;;5095448;28;20290;-59
2021/11/23 13:15:39;;;;;;;;;;;18.10;66.60;;;;;;5096147;28;20432;-57
2021/11/23 13:18:10;;;;;;;;;;;18.10;66.60;;;;;;5057931;28;19928;-58
2021/11/23 13:20:42;;;;;;;;;;;18.10;66.60;;;;;;5075723;28;20375;-56
2021/11/23 13:23:12;;;;;;;;;;;18.10;66.70;;;;;;5075873;28;19924;-51
2021/11/23 13:25:40;;;;;;;;;;;18.10;66.70;;;;;;5076099;28;19925;-53
2021/11/23 13:28:09;;;;;;;;;;;18.10;66.70;;;;;;5075666;28;19924;-53
2021/11/23 13:30:49;;;;;;;;;;;18.10;66.70;;;;;;5075981;28;19928;-56
2021/11/23 13:33:19;;;;;;;;;;;18.10;66.70;;;;;;5075612;28;19928;-55
2021/11/23 13:36:06;;;;;;;;;;;18.10;66.70;;;;;;5075568;28;19982;-58
2021/11/23 13:38:41;;;;;;;;;;;18.10;66.70;;;;;;5075412;28;19955;-56
2021/11/23 13:41:11;;;;;;;;;;;18.10;66.70;;;;;;5076361;28;19924;-59
2021/11/23 13:43:42;;;;;;;;;;;18.10;66.80;;;;;;5075446;28;20434;-55
2021/11/23 13:46:09;;;;;;;;;;;18.10;66.70;;;;;;5075259;28;19925;-59
2021/11/23 13:48:37;;;;;;;;;;;18.10;66.80;;;;;;5075198;28;19967;-57
2021/11/23 13:51:09;;;;;;;;;;;18.10;66.80;;;;;;5075438;28;19925;-57
2021/11/23 13:53:54;;;;;;;;;;;18.10;66.80;;;;;;5074963;28;19925;-54
2021/11/23 13:56:23;;;;;;;;;;;18.10;66.80;;;;;;5075250;28;19924;-57
2021/11/23 13:58:51;;;;;;;;;;;18.00;66.70;;;;;;5075133;28;19924;-52
2021/11/23 14:01:19;;;;;;;;;;;18.00;66.70;;;;;;5074253;28;19970;-59
2021/11/23 14:04:05;;;;;;;;;;;18.00;66.70;;;;;;5055349;28;19925;-59
2021/11/23 14:06:32;;;;;;;;;;;18.10;66.90;;;;;;5054969;28;19931;-58
2021/11/23 14:09:03;;;;;;;;;;;18.00;66.80;;;;;;5054923;28;19975;-57
2021/11/23 14:11:30;;;;;;;;;;;18.00;66.80;;;;;;5054958;28;20376;-54
2021/11/23 14:14:01;;;;;;;;;;;18.00;66.80;;;;;;5055177;28;20296;-55
2021/11/23 14:16:28;;;;;;;;;;;18.00;66.80;;;;;;5055379;28;19925;-60
2021/11/23 14:19:06;;;;;;;;;;;18.00;66.80;;;;;;5054900;28;19979;-54
2021/11/23 14:21:33;;;;;;;;;;;18.00;66.80;;;;;;5054475;28;19925;-58
2021/11/23 14:24:01;;;;;;;;;;;18.00;66.90;;;;;;5054045;28;19925;-53